x

South Brooks (46132) Wave Buoy

6:00pm - Fri 31st Oct 2014 All times are PDT. -7 hours from GMT.

  • Sig Wave height 8.9ft
  • Peak Period 14s
  • Wind
    11mph, 16mph gusts
  • Sea Temp 57°f
  • Air Temp 51°f
  • Sea Pressure 1008.4mb
  • South Brooks
  • South Brooks

More Historic Weather Station data

Upgrade to MSW Pro to gain access to the past 30 days of data for over 8000 Wavebouys and Weather Stations around the globe.

Join Pro

Comparision Forecast

View Surf forecast
   
Fri 10/31 6:00pm 9ft 14s 11 16 mph 1008.4mb 57f 51f
5:00pm 9ft 14s 16 20 mph 1007.7mb 57f 55f
3:00pm 10ft 12s 16 22 mph 1007.5mb 57f 55f
2:00pm 10ft 13s 20 25 mph 1007mb 57f 55f
1:00pm 11ft 14s 20 25 mph 1006.8mb 57f 54f
12:00pm 11ft 13s 13 20 mph 1006.7mb 57f 54f
11:00am 10ft 14s 11 18 mph 1006.5mb 57f 55f
10:00am 10.5ft 14s 16 20 mph 1006.2mb 57f 53f
9:00am 10ft 14s 18 20 mph 1006mb 57f 53f
8:00am 10.5ft 15s 11 16 mph 1005.7mb 57f 52f
7:00am 9ft 14s 7 13 mph 1005.1mb 57f 52f
6:00am 9.5ft 14s 9 11 mph 1004.8mb 57f 52f
5:00am 9.5ft 14s 25 36 mph 1004.5mb 57f 53f
4:00am 9.5ft 14s 13 16 mph 1004.9mb 57f 56f
3:00am 10ft 14s 13 18 mph 1005.2mb 57f 55f
2:00am 9.5ft 13s 9 13 mph 1005.7mb 57f 55f
1:00am  -   -  13
mph
- - -
12:00am 12.5ft 13s 13 16 mph 1005.7mb 57f 55f
Thu 10/30 11:00pm 12ft 11s 11 13 mph 1005.8mb 57f 55f
10:00pm 12ft 12s 9 16 mph 1005.7mb 57f 54f
9:00pm 11.5ft 12s 11 13 mph 1005.3mb 58f 55f
8:00pm 10.5ft 13s 11 13 mph 1005mb 58f 55f
7:00pm 10ft 14s 13 16 mph 1004.5mb 58f 56f
6:00pm 9ft 14s 11 13 mph 1004.3mb 58f 56f
5:00pm 9ft 8s 11 13 mph 1004.2mb 58f 56f
4:00pm 9ft 8s 11 16 mph 1004.2mb 58f 56f
3:00pm 9.5ft 8s 13 16 mph 1004.2mb 58f 57f
2:00pm 10ft 8s 16 18 mph 1004.5mb 58f 57f
1:00pm 11ft 9s 13 18 mph 1004.6mb 58f 57f
12:00pm 12.5ft 8s 18 22 mph 1003.9mb 58f 57f
11:00am 13.5ft 9s 13 20 mph 1002.9mb 58f 56f
10:00am 13ft 9s 9 13 mph 1002.8mb 58f 54f
9:00am 13.5ft 8s 9 11 mph 1002.4mb 58f 53f
8:00am 14ft 8s 20 38 mph 1001.1mb 58f 55f
7:00am 15.5ft 8s 36 45 mph 1000.5mb 58f 56f
6:00am 14.5ft 8s 40 49 mph 1000.4mb 58f 56f
5:00am 13.5ft 8s 40 51 mph 1001.4mb 57f 56f
4:00am 13ft 8s 38 47 mph 1003.3mb 57f 58f
3:00am 12ft 7s 36 45 mph 1005.3mb 57f 58f
2:00am 11.5ft 7s 34 43 mph 1006.8mb 57f 58f
1:00am 11ft 7s 34 43 mph 1007.7mb 57f 57f
12:00am 10ft 6s 29 36 mph 1009mb 58f 56f
Wed 10/29 11:00pm 10.5ft 7s 31 38 mph 1009.8mb 58f 58f
10:00pm 10ft 7s 29 36 mph 1010.4mb 58f 57f
9:00pm 10ft 6s 31 40 mph 1011mb 58f 57f
8:00pm 10ft 11s 29 34 mph 1011.9mb 58f 57f
7:00pm 10ft 10s 27 34 mph 1012.3mb 58f 57f
6:00pm 10ft 11s 27 31 mph 1013.1mb 58f 57f
5:00pm 10ft 10s 22 27 mph 1013.7mb 58f 57f
4:00pm 11ft 11s 25 29 mph 1014mb 58f 57f
3:00pm 11ft 12s 22 27 mph 1014.6mb 58f 57f
2:00pm 11ft 12s 20 25 mph 1015.1mb 58f 57f
1:00pm 10.5ft 12s 16 20 mph 1015.8mb 58f 56f
12:00pm 10.5ft 12s 16 20 mph 1016.3mb 58f 56f
11:00am 10ft 12s 16 18 mph 1015.8mb 58f 56f
10:00am 10ft 13s 13 16 mph 1015.5mb 58f 56f
9:00am 10.5ft 10s 4 7 mph 1014.9mb 58f 56f
8:00am 10.5ft 12s 4 9 mph 1014.3mb 58f 55f
7:00am 10.5ft 13s 7 9 mph 1013.7mb 58f 55f
6:00am 11ft 12s 9 13 mph 1013.1mb 58f 55f
5:00am 12ft 13s 11 16 mph 1012.3mb 58f 55f
4:00am 12ft 12s 13 18 mph 1011.5mb 58f 56f
3:00am 13ft 12s 16 20 mph 1010.7mb 58f 56f
2:00am 13.5ft 12s 16 20 mph 1009.6mb 58f 56f
1:00am 14ft 12s 18 22 mph 1008.5mb 58f 56f
12:00am 13.5ft 12s 13 16 mph 1007.7mb 58f 57f
Tue 10/28 11:00pm 13.5ft 13s 11 16 mph 1006.8mb 58f 57f
10:00pm 12.5ft 11s 11 13 mph 1006mb 58f 57f
9:00pm 14ft 13s 13 18 mph 1004.9mb 58f 57f
8:00pm 14ft 12s 13 18 mph 1004.2mb 58f 56f
7:00pm 13ft 13s 11 13 mph 1003.5mb 58f 57f
6:00pm 14ft 12s 11 13 mph 1002.5mb 58f 57f
5:00pm 13ft 12s 13 16 mph 1001.7mb 58f 57f
4:00pm 14ft 13s 16 20 mph 1000.8mb 58f 57f
3:00pm 15ft 13s 18 22 mph 1000mb 58f 57f
2:00pm 14ft 12s 18 25 mph 999.2mb 58f 57f
1:00pm 15.5ft 11s 22 27 mph 998.4mb 58f 58f
12:00pm 15ft 11s 25 31 mph 997.8mb 58f 58f
10:00am 16.5ft 12s 25 29 mph 997mb 58f 58f
9:00am 16ft 11s 25 31 mph 996.6mb 58f 58f
8:00am 18.5ft 10s 22 29 mph 996.2mb 58f 57f
7:00am 17ft 11s 27 36 mph 995.8mb 58f 58f
6:00am 16ft 11s 27 36 mph 995.7mb 58f 58f
5:00am 17ft 10s 27 36 mph 995.5mb 58f 59f
4:00am 19ft 10s 27 31 mph 996mb 58f 59f
3:00am 19.5ft 11s 27 34 mph 996.8mb 58f 58f